sensor_id;sensor_type;location;lat;lon;timestamp;P1;durP1;ratioP1;P2;durP2;ratioP2
54897;SDS011;40800;52.704;6.398;2023-02-16T00:00:34;68.22;;;56.38;;
54897;SDS011;40800;52.704;6.398;2023-02-16T00:03:00;69.07;;;56.33;;
54897;SDS011;40800;52.704;6.398;2023-02-16T00:07:56;63.53;;;54.33;;
54897;SDS011;40800;52.704;6.398;2023-02-16T00:10:23;65.35;;;54.97;;
54897;SDS011;40800;52.704;6.398;2023-02-16T00:12:50;64.00;;;54.13;;
54897;SDS011;40800;52.704;6.398;2023-02-16T00:15:34;62.78;;;54.72;;
54897;SDS011;40800;52.704;6.398;2023-02-16T00:18:00;63.55;;;54.88;;
54897;SDS011;40800;52.704;6.398;2023-02-16T00:20:28;65.30;;;56.88;;
54897;SDS011;40800;52.704;6.398;2023-02-16T00:22:54;64.57;;;56.55;;
54897;SDS011;40800;52.704;6.398;2023-02-16T00:25:20;66.75;;;57.05;;
54897;SDS011;40800;52.704;6.398;2023-02-16T00:27:46;67.70;;;57.67;;
54897;SDS011;40800;52.704;6.398;2023-02-16T00:30:16;64.40;;;56.28;;
54897;SDS011;40800;52.704;6.398;2023-02-16T00:32:43;64.75;;;55.90;;
54897;SDS011;40800;52.704;6.398;2023-02-16T00:35:27;67.30;;;54.95;;
54897;SDS011;40800;52.704;6.398;2023-02-16T00:37:53;64.80;;;55.30;;
54897;SDS011;40800;52.704;6.398;2023-02-16T00:40:18;67.15;;;55.95;;
54897;SDS011;40800;52.704;6.398;2023-02-16T00:42:44;64.82;;;54.88;;
54897;SDS011;40800;52.704;6.398;2023-02-16T00:45:15;63.20;;;54.33;;
54897;SDS011;40800;52.704;6.398;2023-02-16T00:47:43;63.30;;;54.50;;
54897;SDS011;40800;52.704;6.398;2023-02-16T00:50:45;65.90;;;54.65;;
54897;SDS011;40800;52.704;6.398;2023-02-16T00:53:03;65.28;;;54.78;;
54897;SDS011;40800;52.704;6.398;2023-02-16T00:55:31;63.90;;;54.60;;
54897;SDS011;40800;52.704;6.398;2023-02-16T00:58:04;63.13;;;52.95;;
54897;SDS011;40800;52.704;6.398;2023-02-16T01:00:46;67.60;;;54.97;;
54897;SDS011;40800;52.704;6.398;2023-02-16T01:03:22;64.18;;;54.85;;
54897;SDS011;40800;52.704;6.398;2023-02-16T01:05:49;66.88;;;55.25;;
54897;SDS011;40800;52.704;6.398;2023-02-16T01:08:35;65.45;;;55.28;;
54897;SDS011;40800;52.704;6.398;2023-02-16T01:11:20;64.82;;;55.45;;
54897;SDS011;40800;52.704;6.398;2023-02-16T01:13:48;64.35;;;56.50;;
54897;SDS011;40800;52.704;6.398;2023-02-16T01:18:46;64.65;;;56.28;;
54897;SDS011;40800;52.704;6.398;2023-02-16T01:21:11;65.75;;;54.97;;
54897;SDS011;40800;52.704;6.398;2023-02-16T01:23:37;61.70;;;54.55;;
54897;SDS011;40800;52.704;6.398;2023-02-16T01:26:04;65.70;;;54.85;;
54897;SDS011;40800;52.704;6.398;2023-02-16T01:28:34;61.30;;;54.58;;
54897;SDS011;40800;52.704;6.398;2023-02-16T01:31:00;64.47;;;55.30;;
54897;SDS011;40800;52.704;6.398;2023-02-16T01:33:26;66.53;;;55.83;;
54897;SDS011;40800;52.704;6.398;2023-02-16T01:35:52;66.35;;;56.92;;
54897;SDS011;40800;52.704;6.398;2023-02-16T01:38:21;64.45;;;55.63;;
54897;SDS011;40800;52.704;6.398;2023-02-16T01:44:00;63.70;;;56.80;;
54897;SDS011;40800;52.704;6.398;2023-02-16T01:46:31;65.00;;;56.60;;
54897;SDS011;40800;52.704;6.398;2023-02-16T01:49:02;65.57;;;57.28;;
54897;SDS011;40800;52.704;6.398;2023-02-16T01:51:41;66.60;;;55.65;;
54897;SDS011;40800;52.704;6.398;2023-02-16T01:54:19;65.95;;;56.17;;
54897;SDS011;40800;52.704;6.398;2023-02-16T01:56:49;64.18;;;56.83;;
54897;SDS011;40800;52.704;6.398;2023-02-16T02:01:53;65.55;;;56.47;;
54897;SDS011;40800;52.704;6.398;2023-02-16T02:04:25;63.22;;;56.05;;
54897;SDS011;40800;52.704;6.398;2023-02-16T02:07:14;67.60;;;57.25;;
54897;SDS011;40800;52.704;6.398;2023-02-16T02:09:51;65.72;;;56.10;;
54897;SDS011;40800;52.704;6.398;2023-02-16T02:12:49;69.95;;;57.38;;
54897;SDS011;40800;52.704;6.398;2023-02-16T02:17:50;67.68;;;57.83;;
54897;SDS011;40800;52.704;6.398;2023-02-16T02:37:28;66.18;;;57.80;;
54897;SDS011;40800;52.704;6.398;2023-02-16T02:45:39;71.25;;;59.15;;
54897;SDS011;40800;52.704;6.398;2023-02-16T02:48:08;71.60;;;60.78;;
54897;SDS011;40800;52.704;6.398;2023-02-16T02:53:30;71.93;;;60.60;;
54897;SDS011;40800;52.704;6.398;2023-02-16T02:55:58;73.95;;;60.80;;
54897;SDS011;40800;52.704;6.398;2023-02-16T02:58:45;76.70;;;61.17;;
54897;SDS011;40800;52.704;6.398;2023-02-16T03:01:32;80.97;;;64.57;;
54897;SDS011;40800;52.704;6.398;2023-02-16T03:04:00;77.07;;;64.55;;
54897;SDS011;40800;52.704;6.398;2023-02-16T03:06:32;79.03;;;63.40;;
54897;SDS011;40800;52.704;6.398;2023-02-16T03:09:09;75.88;;;64.28;;
54897;SDS011;40800;52.704;6.398;2023-02-16T03:11:38;81.13;;;64.80;;
54897;SDS011;40800;52.704;6.398;2023-02-16T03:14:24;76.05;;;61.75;;
54897;SDS011;40800;52.704;6.398;2023-02-16T03:16:58;79.60;;;63.83;;
54897;SDS011;40800;52.704;6.398;2023-02-16T03:19:45;76.43;;;64.63;;
54897;SDS011;40800;52.704;6.398;2023-02-16T03:22:32;81.30;;;65.03;;
54897;SDS011;40800;52.704;6.398;2023-02-16T03:25:18;76.88;;;65.97;;
54897;SDS011;40800;52.704;6.398;2023-02-16T03:28:04;77.65;;;65.35;;
54897;SDS011;40800;52.704;6.398;2023-02-16T03:30:50;80.25;;;66.13;;
54897;SDS011;40800;52.704;6.398;2023-02-16T03:33:18;78.53;;;65.80;;
54897;SDS011;40800;52.704;6.398;2023-02-16T03:38:11;84.68;;;67.68;;
54897;SDS011;40800;52.704;6.398;2023-02-16T03:40:37;84.30;;;70.00;;
54897;SDS011;40800;52.704;6.398;2023-02-16T03:43:05;83.00;;;72.03;;
54897;SDS011;40800;52.704;6.398;2023-02-16T03:45:33;84.20;;;71.50;;
54897;SDS011;40800;52.704;6.398;2023-02-16T03:48:00;86.97;;;71.88;;
54897;SDS011;40800;52.704;6.398;2023-02-16T03:50:26;85.30;;;71.70;;
54897;SDS011;40800;52.704;6.398;2023-02-16T03:52:52;80.97;;;68.78;;
54897;SDS011;40800;52.704;6.398;2023-02-16T03:55:30;82.15;;;71.07;;
54897;SDS011;40800;52.704;6.398;2023-02-16T04:00:23;85.13;;;72.85;;
54897;SDS011;40800;52.704;6.398;2023-02-16T04:02:49;83.90;;;71.35;;
54897;SDS011;40800;52.704;6.398;2023-02-16T04:05:14;85.47;;;72.57;;
54897;SDS011;40800;52.704;6.398;2023-02-16T04:07:40;85.57;;;73.07;;
54897;SDS011;40800;52.704;6.398;2023-02-16T04:10:05;80.63;;;71.45;;
54897;SDS011;40800;52.704;6.398;2023-02-16T04:12:31;82.22;;;71.50;;
54897;SDS011;40800;52.704;6.398;2023-02-16T04:15:00;85.03;;;73.80;;
54897;SDS011;40800;52.704;6.398;2023-02-16T04:17:26;84.73;;;75.43;;
54897;SDS011;40800;52.704;6.398;2023-02-16T04:19:51;86.60;;;73.35;;
54897;SDS011;40800;52.704;6.398;2023-02-16T04:22:17;84.13;;;73.13;;
54897;SDS011;40800;52.704;6.398;2023-02-16T04:24:43;84.65;;;75.35;;
54897;SDS011;40800;52.704;6.398;2023-02-16T04:27:08;89.55;;;75.82;;
54897;SDS011;40800;52.704;6.398;2023-02-16T04:29:34;83.95;;;74.05;;
54897;SDS011;40800;52.704;6.398;2023-02-16T04:31:59;88.35;;;76.30;;
54897;SDS011;40800;52.704;6.398;2023-02-16T04:34:25;89.38;;;77.22;;
54897;SDS011;40800;52.704;6.398;2023-02-16T04:36:50;90.63;;;75.65;;
54897;SDS011;40800;52.704;6.398;2023-02-16T04:39:16;88.03;;;75.82;;
54897;SDS011;40800;52.704;6.398;2023-02-16T04:41:42;86.68;;;77.10;;
54897;SDS011;40800;52.704;6.398;2023-02-16T04:44:07;92.75;;;76.55;;
54897;SDS011;40800;52.704;6.398;2023-02-16T04:46:33;90.25;;;79.32;;
54897;SDS011;40800;52.704;6.398;2023-02-16T04:48:58;87.68;;;75.57;;
54897;SDS011;40800;52.704;6.398;2023-02-16T04:51:24;86.43;;;75.82;;
54897;SDS011;40800;52.704;6.398;2023-02-16T04:53:50;87.68;;;76.85;;
54897;SDS011;40800;52.704;6.398;2023-02-16T04:56:15;90.78;;;77.40;;
54897;SDS011;40800;52.704;6.398;2023-02-16T04:58:41;85.57;;;76.15;;
54897;SDS011;40800;52.704;6.398;2023-02-16T05:01:06;88.85;;;78.45;;
54897;SDS011;40800;52.704;6.398;2023-02-16T05:03:32;85.43;;;75.82;;
54897;SDS011;40800;52.704;6.398;2023-02-16T05:05:58;88.30;;;75.93;;
54897;SDS011;40800;52.704;6.398;2023-02-16T05:08:24;88.13;;;77.55;;
54897;SDS011;40800;52.704;6.398;2023-02-16T05:10:49;86.22;;;76.75;;
54897;SDS011;40800;52.704;6.398;2023-02-16T05:13:35;87.20;;;77.78;;
54897;SDS011;40800;52.704;6.398;2023-02-16T05:16:21;89.88;;;78.25;;
54897;SDS011;40800;52.704;6.398;2023-02-16T05:18:49;90.38;;;80.45;;
54897;SDS011;40800;52.704;6.398;2023-02-16T05:21:14;95.30;;;82.30;;
54897;SDS011;40800;52.704;6.398;2023-02-16T05:23:59;89.47;;;79.78;;
54897;SDS011;40800;52.704;6.398;2023-02-16T05:26:26;92.22;;;82.15;;
54897;SDS011;40800;52.704;6.398;2023-02-16T05:28:52;92.63;;;82.60;;
54897;SDS011;40800;52.704;6.398;2023-02-16T05:31:18;91.80;;;81.07;;
54897;SDS011;40800;52.704;6.398;2023-02-16T05:33:44;94.38;;;83.07;;
54897;SDS011;40800;52.704;6.398;2023-02-16T05:36:10;88.78;;;78.38;;
54897;SDS011;40800;52.704;6.398;2023-02-16T05:38:35;91.82;;;81.88;;
54897;SDS011;40800;52.704;6.398;2023-02-16T05:41:01;91.75;;;80.35;;
54897;SDS011;40800;52.704;6.398;2023-02-16T05:43:27;90.60;;;80.93;;
54897;SDS011;40800;52.704;6.398;2023-02-16T05:45:52;92.35;;;82.45;;
54897;SDS011;40800;52.704;6.398;2023-02-16T05:48:18;90.25;;;80.57;;
54897;SDS011;40800;52.704;6.398;2023-02-16T05:50:43;91.22;;;81.30;;
54897;SDS011;40800;52.704;6.398;2023-02-16T05:53:09;90.43;;;80.20;;
54897;SDS011;40800;52.704;6.398;2023-02-16T05:55:35;92.22;;;82.15;;
54897;SDS011;40800;52.704;6.398;2023-02-16T05:58:00;89.53;;;79.75;;
54897;SDS011;40800;52.704;6.398;2023-02-16T06:00:26;91.63;;;81.28;;
54897;SDS011;40800;52.704;6.398;2023-02-16T06:02:52;91.53;;;81.47;;
54897;SDS011;40800;52.704;6.398;2023-02-16T06:05:17;94.22;;;81.53;;
54897;SDS011;40800;52.704;6.398;2023-02-16T06:07:43;90.15;;;80.50;;
54897;SDS011;40800;52.704;6.398;2023-02-16T06:10:09;93.33;;;82.67;;
54897;SDS011;40800;52.704;6.398;2023-02-16T06:12:35;90.60;;;80.72;;
54897;SDS011;40800;52.704;6.398;2023-02-16T06:15:01;90.00;;;80.75;;
54897;SDS011;40800;52.704;6.398;2023-02-16T06:17:27;89.97;;;80.47;;
54897;SDS011;40800;52.704;6.398;2023-02-16T06:19:53;94.68;;;83.68;;
54897;SDS011;40800;52.704;6.398;2023-02-16T06:22:19;89.50;;;80.35;;
54897;SDS011;40800;52.704;6.398;2023-02-16T06:24:44;88.70;;;79.13;;
54897;SDS011;40800;52.704;6.398;2023-02-16T06:27:10;88.88;;;79.50;;
54897;SDS011;40800;52.704;6.398;2023-02-16T06:29:35;88.05;;;78.88;;
54897;SDS011;40800;52.704;6.398;2023-02-16T06:32:01;87.57;;;78.05;;
54897;SDS011;40800;52.704;6.398;2023-02-16T06:34:27;89.57;;;79.72;;
54897;SDS011;40800;52.704;6.398;2023-02-16T06:36:52;88.55;;;78.93;;
54897;SDS011;40800;52.704;6.398;2023-02-16T06:39:18;91.13;;;81.45;;
54897;SDS011;40800;52.704;6.398;2023-02-16T06:41:44;89.95;;;80.68;;
54897;SDS011;40800;52.704;6.398;2023-02-16T06:44:11;89.13;;;80.05;;
54897;SDS011;40800;52.704;6.398;2023-02-16T06:46:39;89.10;;;79.65;;
54897;SDS011;40800;52.704;6.398;2023-02-16T06:49:05;91.57;;;82.30;;
54897;SDS011;40800;52.704;6.398;2023-02-16T06:51:31;88.45;;;79.13;;
54897;SDS011;40800;52.704;6.398;2023-02-16T06:53:57;89.68;;;80.47;;
54897;SDS011;40800;52.704;6.398;2023-02-16T06:56:23;91.25;;;81.65;;
54897;SDS011;40800;52.704;6.398;2023-02-16T06:58:48;92.10;;;82.70;;
54897;SDS011;40800;52.704;6.398;2023-02-16T07:01:15;88.30;;;79.10;;
54897;SDS011;40800;52.704;6.398;2023-02-16T07:03:46;89.47;;;80.20;;
54897;SDS011;40800;52.704;6.398;2023-02-16T07:06:17;89.53;;;80.35;;
54897;SDS011;40800;52.704;6.398;2023-02-16T07:08:43;92.75;;;82.95;;
54897;SDS011;40800;52.704;6.398;2023-02-16T07:11:09;89.43;;;80.28;;
54897;SDS011;40800;52.704;6.398;2023-02-16T07:13:35;90.60;;;81.13;;
54897;SDS011;40800;52.704;6.398;2023-02-16T07:16:03;86.40;;;76.93;;
54897;SDS011;40800;52.704;6.398;2023-02-16T07:18:30;86.10;;;77.30;;
54897;SDS011;40800;52.704;6.398;2023-02-16T07:20:56;88.72;;;79.40;;
54897;SDS011;40800;52.704;6.398;2023-02-16T07:23:22;89.85;;;80.18;;
54897;SDS011;40800;52.704;6.398;2023-02-16T07:25:48;87.88;;;77.38;;
54897;SDS011;40800;52.704;6.398;2023-02-16T07:28:13;83.75;;;75.18;;
54897;SDS011;40800;52.704;6.398;2023-02-16T07:30:39;86.00;;;76.70;;
54897;SDS011;40800;52.704;6.398;2023-02-16T07:33:05;85.63;;;76.40;;
54897;SDS011;40800;52.704;6.398;2023-02-16T07:35:31;85.90;;;76.60;;
54897;SDS011;40800;52.704;6.398;2023-02-16T07:37:57;86.07;;;76.90;;
54897;SDS011;40800;52.704;6.398;2023-02-16T07:40:23;85.68;;;76.60;;
54897;SDS011;40800;52.704;6.398;2023-02-16T07:42:48;85.97;;;76.97;;
54897;SDS011;40800;52.704;6.398;2023-02-16T07:45:14;88.13;;;78.30;;
54897;SDS011;40800;52.704;6.398;2023-02-16T07:47:40;86.45;;;77.18;;
54897;SDS011;40800;52.704;6.398;2023-02-16T07:50:05;85.10;;;76.28;;
54897;SDS011;40800;52.704;6.398;2023-02-16T07:52:33;84.45;;;75.75;;
54897;SDS011;40800;52.704;6.398;2023-02-16T07:54:59;85.63;;;76.82;;
54897;SDS011;40800;52.704;6.398;2023-02-16T07:57:25;86.47;;;77.28;;
54897;SDS011;40800;52.704;6.398;2023-02-16T07:59:52;85.75;;;76.57;;
54897;SDS011;40800;52.704;6.398;2023-02-16T08:02:18;87.45;;;78.43;;
54897;SDS011;40800;52.704;6.398;2023-02-16T08:04:46;87.35;;;78.45;;
54897;SDS011;40800;52.704;6.398;2023-02-16T08:07:12;86.40;;;77.10;;
54897;SDS011;40800;52.704;6.398;2023-02-16T08:09:41;88.90;;;79.35;;
54897;SDS011;40800;52.704;6.398;2023-02-16T08:12:12;85.60;;;76.28;;
54897;SDS011;40800;52.704;6.398;2023-02-16T08:14:38;89.55;;;80.40;;
54897;SDS011;40800;52.704;6.398;2023-02-16T08:17:05;91.82;;;82.35;;
54897;SDS011;40800;52.704;6.398;2023-02-16T08:19:32;92.50;;;82.78;;
54897;SDS011;40800;52.704;6.398;2023-02-16T08:21:58;94.13;;;84.60;;
54897;SDS011;40800;52.704;6.398;2023-02-16T08:24:24;114.10;;;103.47;;
54897;SDS011;40800;52.704;6.398;2023-02-16T08:26:50;95.65;;;85.90;;
54897;SDS011;40800;52.704;6.398;2023-02-16T08:31:44;96.05;;;86.20;;
54897;SDS011;40800;52.704;6.398;2023-02-16T08:34:11;96.72;;;86.85;;
54897;SDS011;40800;52.704;6.398;2023-02-16T08:39:05;97.78;;;87.75;;
54897;SDS011;40800;52.704;6.398;2023-02-16T08:41:34;99.53;;;89.40;;
54897;SDS011;40800;52.704;6.398;2023-02-16T08:44:01;97.32;;;87.25;;
54897;SDS011;40800;52.704;6.398;2023-02-16T08:46:29;99.85;;;89.53;;
54897;SDS011;40800;52.704;6.398;2023-02-16T08:48:55;96.60;;;86.67;;
54897;SDS011;40800;52.704;6.398;2023-02-16T08:51:23;97.53;;;87.53;;
54897;SDS011;40800;52.704;6.398;2023-02-16T08:53:49;95.50;;;85.85;;
54897;SDS011;40800;52.704;6.398;2023-02-16T08:56:16;99.18;;;88.97;;
54897;SDS011;40800;52.704;6.398;2023-02-16T08:58:43;98.75;;;88.55;;
54897;SDS011;40800;52.704;6.398;2023-02-16T09:01:10;94.10;;;84.22;;
54897;SDS011;40800;52.704;6.398;2023-02-16T09:03:38;93.82;;;84.20;;
54897;SDS011;40800;52.704;6.398;2023-02-16T09:06:09;94.97;;;85.15;;
54897;SDS011;40800;52.704;6.398;2023-02-16T09:08:36;95.18;;;85.43;;
54897;SDS011;40800;52.704;6.398;2023-02-16T09:11:03;96.43;;;86.47;;
54897;SDS011;40800;52.704;6.398;2023-02-16T09:13:34;93.65;;;84.22;;
54897;SDS011;40800;52.704;6.398;2023-02-16T09:16:00;98.90;;;88.68;;
54897;SDS011;40800;52.704;6.398;2023-02-16T09:18:28;95.20;;;85.32;;
54897;SDS011;40800;52.704;6.398;2023-02-16T09:20:53;97.80;;;87.63;;
54897;SDS011;40800;52.704;6.398;2023-02-16T09:23:19;96.88;;;86.70;;
54897;SDS011;40800;52.704;6.398;2023-02-16T09:25:45;98.95;;;88.57;;
54897;SDS011;40800;52.704;6.398;2023-02-16T09:28:12;99.65;;;89.70;;
54897;SDS011;40800;52.704;6.398;2023-02-16T09:30:38;96.90;;;86.88;;
54897;SDS011;40800;52.704;6.398;2023-02-16T09:33:04;96.47;;;86.57;;
54897;SDS011;40800;52.704;6.398;2023-02-16T09:35:29;94.13;;;84.35;;
54897;SDS011;40800;52.704;6.398;2023-02-16T09:37:56;96.25;;;86.47;;
54897;SDS011;40800;52.704;6.398;2023-02-16T09:40:22;97.15;;;87.25;;
54897;SDS011;40800;52.704;6.398;2023-02-16T09:45:55;98.13;;;88.15;;
54897;SDS011;40800;52.704;6.398;2023-02-16T09:48:42;98.25;;;87.78;;
54897;SDS011;40800;52.704;6.398;2023-02-16T09:51:14;97.40;;;87.70;;
54897;SDS011;40800;52.704;6.398;2023-02-16T09:53:46;100.55;;;90.30;;
54897;SDS011;40800;52.704;6.398;2023-02-16T09:56:35;101.70;;;90.93;;
54897;SDS011;40800;52.704;6.398;2023-02-16T10:04:51;107.32;;;96.30;;
54897;SDS011;40800;52.704;6.398;2023-02-16T10:07:58;107.15;;;95.82;;
54897;SDS011;40800;52.704;6.398;2023-02-16T10:10:36;107.63;;;96.72;;
54897;SDS011;40800;52.704;6.398;2023-02-16T10:13:21;111.22;;;100.25;;
54897;SDS011;40800;52.704;6.398;2023-02-16T10:15:56;111.93;;;100.18;;
54897;SDS011;40800;52.704;6.398;2023-02-16T10:18:33;113.07;;;101.50;;
54897;SDS011;40800;52.704;6.398;2023-02-16T10:21:05;114.40;;;102.70;;
54897;SDS011;40800;52.704;6.398;2023-02-16T10:28:50;119.35;;;106.50;;
54897;SDS011;40800;52.704;6.398;2023-02-16T10:31:23;118.47;;;105.80;;
54897;SDS011;40800;52.704;6.398;2023-02-16T10:36:58;119.80;;;106.32;;
54897;SDS011;40800;52.704;6.398;2023-02-16T10:39:57;120.50;;;107.55;;
54897;SDS011;40800;52.704;6.398;2023-02-16T10:42:51;119.13;;;106.28;;
54897;SDS011;40800;52.704;6.398;2023-02-16T10:48:10;120.50;;;107.70;;
54897;SDS011;40800;52.704;6.398;2023-02-16T10:50:37;121.63;;;108.72;;
54897;SDS011;40800;52.704;6.398;2023-02-16T10:53:12;122.03;;;108.95;;
54897;SDS011;40800;52.704;6.398;2023-02-16T10:55:38;122.47;;;109.45;;
54897;SDS011;40800;52.704;6.398;2023-02-16T10:58:04;121.13;;;108.32;;
54897;SDS011;40800;52.704;6.398;2023-02-16T11:03:22;120.72;;;107.82;;
54897;SDS011;40800;52.704;6.398;2023-02-16T11:05:52;120.75;;;107.63;;
54897;SDS011;40800;52.704;6.398;2023-02-16T11:08:18;123.85;;;110.28;;
54897;SDS011;40800;52.704;6.398;2023-02-16T11:10:46;121.82;;;108.93;;
54897;SDS011;40800;52.704;6.398;2023-02-16T11:15:51;124.53;;;111.20;;
54897;SDS011;40800;52.704;6.398;2023-02-16T11:20:53;123.63;;;110.82;;
54897;SDS011;40800;52.704;6.398;2023-02-16T11:23:20;123.90;;;110.53;;
54897;SDS011;40800;52.704;6.398;2023-02-16T11:28:32;127.07;;;112.95;;
54897;SDS011;40800;52.704;6.398;2023-02-16T11:33:57;124.57;;;111.75;;
54897;SDS011;40800;52.704;6.398;2023-02-16T11:36:39;127.45;;;114.07;;
54897;SDS011;40800;52.704;6.398;2023-02-16T11:41:57;129.13;;;115.45;;
54897;SDS011;40800;52.704;6.398;2023-02-16T11:44:37;127.25;;;113.40;;
54897;SDS011;40800;52.704;6.398;2023-02-16T11:47:30;128.32;;;114.53;;
54897;SDS011;40800;52.704;6.398;2023-02-16T11:53:22;126.03;;;112.78;;
54897;SDS011;40800;52.704;6.398;2023-02-16T11:55:48;132.65;;;118.63;;
54897;SDS011;40800;52.704;6.398;2023-02-16T11:58:22;128.63;;;114.72;;
54897;SDS011;40800;52.704;6.398;2023-02-16T12:06:36;133.45;;;118.85;;
54897;SDS011;40800;52.704;6.398;2023-02-16T12:11:58;130.82;;;116.90;;
54897;SDS011;40800;52.704;6.398;2023-02-16T12:17:54;132.07;;;118.25;;
54897;SDS011;40800;52.704;6.398;2023-02-16T12:22:50;129.73;;;116.68;;
54897;SDS011;40800;52.704;6.398;2023-02-16T12:25:29;125.25;;;112.82;;
54897;SDS011;40800;52.704;6.398;2023-02-16T12:28:17;123.80;;;111.15;;
54897;SDS011;40800;52.704;6.398;2023-02-16T12:30:56;125.50;;;113.15;;
54897;SDS011;40800;52.704;6.398;2023-02-16T12:33:36;120.97;;;109.22;;
54897;SDS011;40800;52.704;6.398;2023-02-16T12:36:26;118.95;;;107.13;;
54897;SDS011;40800;52.704;6.398;2023-02-16T12:44:35;120.32;;;108.32;;
54897;SDS011;40800;52.704;6.398;2023-02-16T12:47:07;115.03;;;103.82;;
54897;SDS011;40800;52.704;6.398;2023-02-16T12:50:06;111.75;;;100.45;;
54897;SDS011;40800;52.704;6.398;2023-02-16T12:55:20;103.30;;;93.30;;
54897;SDS011;40800;52.704;6.398;2023-02-16T12:57:58;100.85;;;91.65;;
54897;SDS011;40800;52.704;6.398;2023-02-16T13:00:40;97.15;;;87.78;;
54897;SDS011;40800;52.704;6.398;2023-02-16T13:08:25;94.63;;;85.93;;
54897;SDS011;40800;52.704;6.398;2023-02-16T13:11:21;87.65;;;79.65;;
54897;SDS011;40800;52.704;6.398;2023-02-16T13:13:50;84.47;;;76.60;;
54897;SDS011;40800;52.704;6.398;2023-02-16T13:19:01;83.55;;;75.57;;
54897;SDS011;40800;52.704;6.398;2023-02-16T13:29:58;85.40;;;77.00;;
54897;SDS011;40800;52.704;6.398;2023-02-16T13:43:59;87.97;;;79.57;;
54897;SDS011;40800;52.704;6.398;2023-02-16T13:48:56;87.28;;;78.97;;
54897;SDS011;40800;52.704;6.398;2023-02-16T13:51:23;87.00;;;78.80;;
54897;SDS011;40800;52.704;6.398;2023-02-16T13:58:54;80.53;;;72.97;;
54897;SDS011;40800;52.704;6.398;2023-02-16T14:03:58;81.43;;;73.68;;
54897;SDS011;40800;52.704;6.398;2023-02-16T14:23:19;77.45;;;70.13;;
54897;SDS011;40800;52.704;6.398;2023-02-16T14:27:52;71.78;;;64.88;;
54897;SDS011;40800;52.704;6.398;2023-02-16T14:30:22;71.53;;;64.28;;
54897;SDS011;40800;52.704;6.398;2023-02-16T14:41:06;67.68;;;61.33;;
54897;SDS011;40800;52.704;6.398;2023-02-16T14:57:15;65.32;;;59.13;;
54897;SDS011;40800;52.704;6.398;2023-02-16T14:59:53;66.15;;;59.75;;
54897;SDS011;40800;52.704;6.398;2023-02-16T15:02:27;67.68;;;60.97;;
54897;SDS011;40800;52.704;6.398;2023-02-16T15:05:13;70.10;;;63.58;;
54897;SDS011;40800;52.704;6.398;2023-02-16T15:07:44;71.28;;;64.35;;
54897;SDS011;40800;52.704;6.398;2023-02-16T15:10:24;71.60;;;64.65;;
54897;SDS011;40800;52.704;6.398;2023-02-16T15:12:55;74.95;;;67.93;;
54897;SDS011;40800;52.704;6.398;2023-02-16T15:15:24;74.70;;;67.63;;
54897;SDS011;40800;52.704;6.398;2023-02-16T15:18:03;79.88;;;72.20;;
54897;SDS011;40800;52.704;6.398;2023-02-16T15:20:32;78.40;;;71.10;;
54897;SDS011;40800;52.704;6.398;2023-02-16T15:23:03;81.95;;;74.10;;
54897;SDS011;40800;52.704;6.398;2023-02-16T15:25:33;81.70;;;74.05;;
54897;SDS011;40800;52.704;6.398;2023-02-16T15:30:34;82.47;;;74.85;;
54897;SDS011;40800;52.704;6.398;2023-02-16T15:33:10;82.93;;;74.93;;
54897;SDS011;40800;52.704;6.398;2023-02-16T15:35:53;82.63;;;75.13;;
54897;SDS011;40800;52.704;6.398;2023-02-16T15:40:51;83.68;;;75.63;;
54897;SDS011;40800;52.704;6.398;2023-02-16T15:43:24;87.50;;;79.57;;
54897;SDS011;40800;52.704;6.398;2023-02-16T15:45:55;84.60;;;76.97;;
54897;SDS011;40800;52.704;6.398;2023-02-16T15:48:31;85.28;;;77.72;;
54897;SDS011;40800;52.704;6.398;2023-02-16T15:51:04;84.43;;;76.68;;
54897;SDS011;40800;52.704;6.398;2023-02-16T15:53:43;83.50;;;75.68;;
54897;SDS011;40800;52.704;6.398;2023-02-16T15:58:58;84.00;;;76.50;;
54897;SDS011;40800;52.704;6.398;2023-02-16T16:01:29;84.15;;;76.78;;
54897;SDS011;40800;52.704;6.398;2023-02-16T16:04:05;84.75;;;77.20;;
54897;SDS011;40800;52.704;6.398;2023-02-16T16:06:44;84.80;;;77.10;;
54897;SDS011;40800;52.704;6.398;2023-02-16T16:09:22;85.88;;;78.18;;
54897;SDS011;40800;52.704;6.398;2023-02-16T16:11:55;84.85;;;77.55;;
54897;SDS011;40800;52.704;6.398;2023-02-16T16:14:23;85.47;;;77.97;;
54897;SDS011;40800;52.704;6.398;2023-02-16T16:16:50;85.43;;;77.90;;
54897;SDS011;40800;52.704;6.398;2023-02-16T16:19:21;88.65;;;80.90;;
54897;SDS011;40800;52.704;6.398;2023-02-16T16:25:02;93.95;;;85.97;;
54897;SDS011;40800;52.704;6.398;2023-02-16T16:28:01;92.68;;;84.88;;
54897;SDS011;40800;52.704;6.398;2023-02-16T16:30:32;97.25;;;89.38;;
54897;SDS011;40800;52.704;6.398;2023-02-16T16:32:59;96.20;;;88.05;;
54897;SDS011;40800;52.704;6.398;2023-02-16T16:37:58;97.32;;;88.68;;
54897;SDS011;40800;52.704;6.398;2023-02-16T16:40:26;98.20;;;89.90;;
54897;SDS011;40800;52.704;6.398;2023-02-16T16:45:38;98.82;;;90.53;;
54897;SDS011;40800;52.704;6.398;2023-02-16T16:51:07;98.60;;;90.38;;
54897;SDS011;40800;52.704;6.398;2023-02-16T16:56:13;108.00;;;99.03;;
54897;SDS011;40800;52.704;6.398;2023-02-16T16:58:39;106.72;;;97.43;;
54897;SDS011;40800;52.704;6.398;2023-02-16T17:01:05;110.82;;;101.13;;
54897;SDS011;40800;52.704;6.398;2023-02-16T17:03:32;113.68;;;103.60;;
54897;SDS011;40800;52.704;6.398;2023-02-16T17:05:58;121.07;;;110.53;;
54897;SDS011;40800;52.704;6.398;2023-02-16T17:08:24;120.30;;;109.60;;
54897;SDS011;40800;52.704;6.398;2023-02-16T17:10:49;124.10;;;112.22;;
54897;SDS011;40800;52.704;6.398;2023-02-16T17:13:17;124.22;;;112.65;;
54897;SDS011;40800;52.704;6.398;2023-02-16T17:15:47;126.38;;;114.22;;
54897;SDS011;40800;52.704;6.398;2023-02-16T17:18:16;132.15;;;119.78;;
54897;SDS011;40800;52.704;6.398;2023-02-16T17:20:43;127.07;;;115.30;;
54897;SDS011;40800;52.704;6.398;2023-02-16T17:23:13;133.65;;;120.82;;
54897;SDS011;40800;52.704;6.398;2023-02-16T17:25:41;133.30;;;120.32;;
54897;SDS011;40800;52.704;6.398;2023-02-16T17:28:07;129.63;;;116.65;;
54897;SDS011;40800;52.704;6.398;2023-02-16T17:30:34;124.40;;;111.55;;
54897;SDS011;40800;52.704;6.398;2023-02-16T17:33:00;125.90;;;112.85;;
54897;SDS011;40800;52.704;6.398;2023-02-16T17:35:26;121.40;;;108.93;;
54897;SDS011;40800;52.704;6.398;2023-02-16T17:37:53;123.53;;;111.35;;
54897;SDS011;40800;52.704;6.398;2023-02-16T17:40:19;119.43;;;107.22;;
54897;SDS011;40800;52.704;6.398;2023-02-16T17:42:47;125.68;;;112.68;;
54897;SDS011;40800;52.704;6.398;2023-02-16T17:45:14;124.30;;;111.13;;
54897;SDS011;40800;52.704;6.398;2023-02-16T17:47:42;123.97;;;110.88;;
54897;SDS011;40800;52.704;6.398;2023-02-16T17:50:10;124.60;;;111.28;;
54897;SDS011;40800;52.704;6.398;2023-02-16T17:52:38;122.28;;;109.13;;
54897;SDS011;40800;52.704;6.398;2023-02-16T17:55:04;127.00;;;113.40;;
54897;SDS011;40800;52.704;6.398;2023-02-16T17:57:30;123.22;;;110.10;;
54897;SDS011;40800;52.704;6.398;2023-02-16T17:59:56;126.68;;;112.82;;
54897;SDS011;40800;52.704;6.398;2023-02-16T18:02:22;128.05;;;114.20;;
54897;SDS011;40800;52.704;6.398;2023-02-16T18:04:47;129.23;;;114.07;;